createdAt,value
2017-05-31T00:00:18.526Z,90.80
2017-05-31T00:02:46.854Z,90.50
2017-05-31T00:05:14.422Z,90.50
2017-05-31T00:07:42.750Z,90.20
2017-05-31T00:10:11.069Z,90.50
2017-05-31T00:12:39.408Z,90.10
2017-05-31T00:15:07.748Z,90.40
2017-05-31T00:17:35.293Z,90.40
2017-05-31T00:20:02.839Z,91.10
2017-05-31T00:22:31.154Z,89.90
2017-05-31T00:24:58.694Z,89.90
2017-05-31T00:27:27.039Z,90.00
2017-05-31T00:29:55.363Z,90.10
2017-05-31T00:32:22.912Z,90.10
2017-05-31T00:34:50.468Z,89.90
2017-05-31T00:37:18.798Z,90.40
2017-05-31T00:39:47.111Z,90.30
2017-05-31T00:42:14.692Z,90.30
2017-05-31T00:44:42.244Z,91.00
2017-05-31T00:47:09.787Z,91.10
2017-05-31T00:49:38.107Z,91.10
2017-05-31T00:52:05.662Z,91.00
2017-05-31T00:54:33.986Z,91.40
2017-05-31T00:57:02.303Z,91.70
2017-05-31T00:59:30.622Z,91.10
2017-05-31T01:01:58.178Z,91.10
2017-05-31T01:04:26.510Z,91.40
2017-05-31T01:06:54.842Z,91.20
2017-05-31T01:09:23.175Z,91.40
2017-05-31T01:11:51.478Z,91.60
2017-05-31T01:14:19.059Z,91.50
2017-05-31T01:16:47.398Z,91.70
2017-05-31T01:19:15.743Z,91.60
2017-05-31T01:21:44.058Z,92.00
2017-05-31T01:24:11.622Z,91.90
2017-05-31T01:26:39.940Z,92.20
2017-05-31T01:29:08.258Z,91.80
2017-05-31T01:31:36.576Z,92.40
2017-05-31T01:34:04.126Z,92.30
2017-05-31T01:36:31.705Z,92.10
2017-05-31T01:39:00.022Z,92.10
2017-05-31T01:41:27.567Z,92.00
2017-05-31T01:43:55.889Z,92.70
2017-05-31T01:46:24.194Z,92.40
2017-05-31T01:48:52.506Z,92.50
2017-05-31T01:51:20.855Z,92.40
2017-05-31T01:53:48.423Z,92.30
2017-05-31T01:56:15.987Z,92.40
2017-05-31T01:58:44.334Z,92.40
2017-05-31T02:01:11.882Z,92.40
2017-05-31T02:03:39.432Z,92.00
2017-05-31T02:06:07.750Z,92.20
2017-05-31T02:08:36.060Z,92.20
2017-05-31T02:11:03.613Z,92.20
2017-05-31T02:13:31.943Z,92.20
2017-05-31T02:16:00.273Z,92.50
2017-05-31T02:18:28.591Z,92.50
2017-05-31T02:20:56.186Z,92.50
2017-05-31T02:23:24.499Z,92.40
2017-05-31T02:25:52.838Z,92.80
2017-05-31T02:28:21.155Z,93.00
2017-05-31T02:30:48.698Z,92.90
2017-05-31T02:33:16.254Z,92.40
2017-05-31T02:35:43.799Z,92.50
2017-05-31T02:38:12.144Z,92.70
2017-05-31T02:40:39.699Z,92.70
2017-05-31T02:43:07.243Z,92.80
2017-05-31T02:45:34.803Z,92.80
2017-05-31T02:48:03.151Z,92.90
2017-05-31T02:50:30.707Z,92.80
2017-05-31T02:52:58.297Z,92.90
2017-05-31T02:55:26.638Z,92.10
2017-05-31T02:57:54.951Z,92.80
2017-05-31T03:00:23.268Z,91.70
2017-05-31T03:02:51.578Z,92.20
2017-05-31T03:05:19.892Z,92.50
2017-05-31T03:07:48.213Z,91.80
2017-05-31T03:10:16.554Z,91.90
2017-05-31T03:12:44.871Z,92.00
2017-05-31T03:15:13.201Z,92.30
2017-05-31T03:17:41.526Z,92.40
2017-05-31T03:20:09.872Z,92.80
2017-05-31T03:22:37.419Z,92.80
2017-05-31T03:25:04.988Z,92.40
2017-05-31T03:27:33.305Z,92.10
2017-05-31T03:30:00.859Z,92.10
2017-05-31T03:32:29.174Z,92.80
2017-05-31T03:34:56.723Z,92.80
2017-05-31T03:37:24.290Z,92.10
2017-05-31T03:39:52.607Z,91.80
2017-05-31T03:42:20.943Z,92.00
2017-05-31T03:44:48.544Z,92.00
2017-05-31T03:47:16.918Z,92.20
2017-05-31T03:49:45.226Z,92.50
2017-05-31T03:52:12.807Z,92.40
2017-05-31T03:54:41.127Z,92.30
2017-05-31T03:57:09.461Z,92.50
2017-05-31T03:59:37.783Z,92.60
2017-05-31T04:02:05.390Z,92.60
2017-05-31T04:04:32.931Z,92.80
2017-05-31T04:07:00.472Z,92.70
2017-05-31T04:09:28.836Z,92.00
2017-05-31T04:11:56.392Z,92.00
2017-05-31T04:14:23.983Z,92.10
2017-05-31T04:16:51.536Z,92.30
2017-05-31T04:19:19.869Z,92.30
2017-05-31T04:21:47.430Z,92.30
2017-05-31T04:24:15.026Z,92.20
2017-05-31T04:26:42.574Z,91.90
2017-05-31T04:29:10.912Z,92.10
2017-05-31T04:31:39.231Z,92.80
2017-05-31T04:34:06.789Z,92.80
2017-05-31T04:36:35.135Z,92.40
2017-05-31T04:39:03.452Z,92.40
2017-05-31T04:41:31.785Z,92.30
2017-05-31T04:43:59.347Z,92.30
2017-05-31T04:46:27.792Z,91.50
2017-05-31T04:48:56.203Z,92.20
2017-05-31T04:51:24.608Z,91.40
2017-05-31T04:53:52.943Z,91.50
2017-05-31T04:56:21.388Z,91.60
2017-05-31T04:58:49.765Z,91.60
2017-05-31T05:01:18.140Z,91.70
2017-05-31T05:03:46.520Z,91.50
2017-05-31T05:06:14.842Z,90.80
2017-05-31T05:08:43.182Z,91.30
2017-05-31T05:11:11.499Z,90.60
2017-05-31T05:13:39.824Z,89.50
2017-05-31T05:16:08.141Z,85.30
2017-05-31T05:18:36.551Z,82.20
2017-05-31T05:21:04.100Z,82.20
2017-05-31T05:23:31.647Z,76.70
2017-05-31T05:25:59.187Z,76.10
2017-05-31T05:28:27.506Z,75.30
2017-05-31T05:30:55.060Z,75.30
2017-05-31T05:33:22.637Z,75.60
2017-05-31T05:35:50.955Z,72.10
2017-05-31T05:38:19.262Z,73.00
2017-05-31T05:40:46.814Z,72.90
2017-05-31T05:43:15.134Z,70.90
2017-05-31T05:45:43.454Z,69.50
2017-05-31T05:48:11.759Z,67.40
2017-05-31T05:50:40.080Z,68.60
2017-05-31T05:53:07.638Z,68.60
2017-05-31T05:55:36.403Z,72.00
2017-05-31T05:58:04.722Z,75.40
2017-05-31T06:00:33.063Z,78.20
2017-05-31T06:03:01.392Z,79.40
2017-05-31T06:05:28.943Z,79.20
2017-05-31T06:07:57.262Z,74.20
2017-05-31T06:10:24.823Z,74.20
2017-05-31T06:12:53.138Z,70.10
2017-05-31T06:15:20.698Z,70.10
2017-05-31T06:17:49.015Z,73.30
2017-05-31T06:20:16.576Z,73.50
2017-05-31T06:22:44.147Z,74.60
2017-05-31T06:25:11.696Z,77.90
2017-05-31T06:27:40.039Z,73.40
2017-05-31T06:30:08.352Z,71.00
2017-05-31T06:32:35.956Z,70.90
2017-05-31T06:35:04.276Z,69.30
2017-05-31T06:37:32.599Z,64.10
2017-05-31T06:40:00.146Z,64.10
2017-05-31T06:42:28.454Z,63.50
2017-05-31T06:44:56.770Z,66.30
2017-05-31T06:47:25.083Z,64.20
2017-05-31T06:49:53.399Z,68.90
2017-05-31T06:52:21.725Z,71.50
2017-05-31T06:54:50.070Z,71.40
2017-05-31T06:57:18.386Z,71.10
2017-05-31T06:59:45.967Z,71.10
2017-05-31T07:02:14.283Z,65.30
2017-05-31T07:04:42.626Z,61.00
2017-05-31T07:07:11.226Z,62.70
2017-05-31T07:09:39.534Z,59.00
2017-05-31T07:12:07.908Z,61.60
2017-05-31T07:14:36.238Z,56.30
2017-05-31T07:17:04.660Z,58.90
2017-05-31T07:19:32.984Z,58.00
2017-05-31T07:22:01.320Z,57.20
2017-05-31T07:24:29.634Z,56.70
2017-05-31T07:26:57.979Z,58.10
2017-05-31T07:29:26.293Z,61.80
2017-05-31T07:31:54.641Z,59.20
2017-05-31T07:34:23.020Z,63.40
2017-05-31T07:36:51.375Z,69.20
2017-05-31T07:39:19.703Z,63.90
2017-05-31T07:41:48.014Z,64.70
2017-05-31T07:44:16.339Z,64.30
2017-05-31T07:46:44.718Z,70.80
2017-05-31T07:49:13.031Z,69.70
2017-05-31T07:51:41.363Z,67.90
2017-05-31T07:54:09.743Z,69.40
2017-05-31T07:56:38.059Z,73.20
2017-05-31T07:59:06.409Z,73.60
2017-05-31T08:01:34.803Z,72.90
2017-05-31T08:04:03.154Z,75.00
2017-05-31T08:06:31.462Z,72.90
2017-05-31T08:08:59.814Z,70.20
2017-05-31T08:11:28.136Z,69.20
2017-05-31T08:13:56.643Z,70.90
2017-05-31T08:16:24.957Z,68.70
2017-05-31T08:18:53.270Z,75.00
2017-05-31T08:21:21.602Z,69.60
2017-05-31T08:23:49.999Z,63.80
2017-05-31T08:26:18.361Z,58.60
2017-05-31T08:28:46.678Z,61.30
2017-05-31T08:31:15.011Z,62.80
2017-05-31T08:33:43.425Z,63.40
2017-05-31T08:36:11.785Z,60.10
2017-05-31T08:38:40.098Z,59.80
2017-05-31T08:41:08.424Z,64.50
2017-05-31T08:43:36.758Z,64.00
2017-05-31T08:46:05.067Z,63.10
2017-05-31T08:48:33.398Z,60.20
2017-05-31T08:51:01.753Z,65.00
2017-05-31T08:53:30.068Z,63.80
2017-05-31T08:55:58.387Z,63.30
2017-05-31T08:58:26.703Z,63.20
2017-05-31T09:00:55.024Z,64.00
2017-05-31T09:03:23.379Z,67.00
2017-05-31T09:05:51.743Z,67.30
2017-05-31T09:08:20.056Z,67.80
2017-05-31T09:10:48.383Z,70.60
2017-05-31T09:13:16.721Z,68.30
2017-05-31T09:15:45.062Z,62.00
2017-05-31T09:18:13.438Z,61.30
2017-05-31T09:20:41.820Z,59.60
2017-05-31T09:23:10.142Z,62.60
2017-05-31T09:25:38.495Z,59.70
2017-05-31T09:28:06.826Z,65.10
2017-05-31T09:30:35.140Z,62.70
2017-05-31T09:33:03.454Z,62.20
2017-05-31T09:35:31.776Z,62.60
2017-05-31T09:38:00.163Z,60.90
2017-05-31T09:40:28.553Z,62.70
2017-05-31T09:42:57.014Z,66.70
2017-05-31T09:45:25.407Z,68.80
2017-05-31T09:47:53.718Z,62.80
2017-05-31T09:50:22.042Z,60.80
2017-05-31T09:52:50.452Z,57.50
2017-05-31T09:55:18.777Z,58.70
2017-05-31T09:57:47.126Z,56.50
2017-05-31T10:00:15.446Z,58.30
2017-05-31T10:02:43.758Z,55.10
2017-05-31T10:05:12.155Z,53.90
2017-05-31T10:07:40.461Z,56.70
2017-05-31T10:10:08.778Z,55.20
2017-05-31T10:12:37.091Z,52.40
2017-05-31T10:15:05.405Z,54.20
2017-05-31T10:17:33.708Z,57.80
2017-05-31T10:20:02.053Z,58.10
2017-05-31T10:22:30.363Z,59.70
2017-05-31T10:24:58.707Z,59.30
2017-05-31T10:27:27.012Z,57.60
2017-05-31T10:29:55.330Z,58.80
2017-05-31T10:32:23.648Z,62.60
2017-05-31T10:34:51.966Z,58.20
2017-05-31T10:37:20.365Z,58.50
2017-05-31T10:39:48.691Z,61.20
2017-05-31T10:42:17.012Z,61.70
2017-05-31T10:44:45.400Z,63.00
2017-05-31T10:47:13.751Z,58.00
2017-05-31T10:49:42.062Z,56.50
2017-05-31T10:52:10.439Z,56.10
2017-05-31T10:54:38.753Z,56.30
2017-05-31T10:57:07.063Z,54.20
2017-05-31T10:59:35.367Z,56.80
2017-05-31T11:02:02.907Z,56.80
2017-05-31T11:04:31.225Z,53.30
2017-05-31T11:06:59.541Z,54.20
2017-05-31T11:09:27.852Z,55.10
2017-05-31T11:11:56.177Z,52.30
2017-05-31T11:14:23.719Z,52.50
2017-05-31T11:16:51.257Z,52.90
2017-05-31T11:19:19.595Z,53.10
2017-05-31T11:21:47.147Z,53.10
2017-05-31T11:24:15.498Z,52.50
2017-05-31T11:26:43.802Z,53.80
2017-05-31T11:29:12.127Z,49.90
2017-05-31T11:31:39.691Z,50.50
2017-05-31T11:34:07.242Z,47.90
2017-05-31T11:36:35.550Z,50.20
2017-05-31T11:39:03.091Z,50.00
2017-05-31T11:41:31.416Z,50.70
2017-05-31T11:43:59.727Z,51.70
2017-05-31T11:46:28.070Z,49.70
2017-05-31T11:48:56.781Z,51.30
2017-05-31T11:51:25.115Z,52.90
2017-05-31T11:53:52.655Z,52.80
2017-05-31T11:56:20.219Z,52.60
2017-05-31T11:58:48.531Z,53.90
2017-05-31T12:01:16.112Z,53.90
2017-05-31T12:03:43.655Z,52.80
2017-05-31T12:06:11.971Z,51.90
2017-05-31T12:08:40.279Z,51.30
2017-05-31T12:11:08.591Z,53.40
2017-05-31T12:13:36.126Z,53.30
2017-05-31T12:16:04.435Z,50.60
2017-05-31T12:18:32.765Z,49.40
2017-05-31T12:21:00.306Z,49.50
2017-05-31T12:23:27.899Z,51.60
2017-05-31T12:25:56.203Z,50.70
2017-05-31T12:28:24.544Z,53.10
2017-05-31T12:30:52.102Z,53.20
2017-05-31T12:33:20.451Z,52.50
2017-05-31T12:35:47.994Z,52.50
2017-05-31T12:38:16.301Z,51.30
2017-05-31T12:40:44.632Z,54.80
2017-05-31T12:43:12.186Z,54.80
2017-05-31T12:45:39.715Z,52.10
2017-05-31T12:48:08.026Z,52.80
2017-05-31T12:50:35.562Z,52.80
2017-05-31T12:53:03.107Z,50.40
2017-05-31T12:55:31.443Z,49.60
2017-05-31T12:57:59.764Z,49.90
2017-05-31T13:00:27.317Z,50.00
2017-05-31T13:02:55.621Z,50.10
2017-05-31T13:05:23.199Z,50.20
2017-05-31T13:07:51.513Z,49.60
2017-05-31T13:10:19.824Z,50.30
2017-05-31T13:12:47.380Z,50.30
2017-05-31T13:15:14.918Z,49.80
2017-05-31T13:17:43.223Z,52.80
2017-05-31T13:20:10.770Z,52.70
2017-05-31T13:22:39.080Z,54.30
2017-05-31T13:25:06.622Z,54.30
2017-05-31T13:27:34.954Z,51.30
2017-05-31T13:30:02.501Z,51.40
2017-05-31T13:32:30.074Z,51.80
2017-05-31T13:34:58.382Z,51.50
2017-05-31T13:37:26.714Z,53.00
2017-05-31T13:39:55.022Z,51.50
2017-05-31T13:42:23.333Z,54.10
2017-05-31T13:44:50.870Z,54.70
2017-05-31T13:47:19.170Z,54.00
2017-05-31T13:49:47.482Z,53.00
2017-05-31T13:52:15.798Z,52.40
2017-05-31T13:54:44.139Z,51.00
2017-05-31T13:57:12.445Z,50.80
2017-05-31T13:59:40.029Z,50.60
2017-05-31T14:02:08.339Z,50.20
2017-05-31T14:04:36.650Z,50.50
2017-05-31T14:07:04.961Z,51.30
2017-05-31T14:09:32.507Z,51.20
2017-05-31T14:12:00.819Z,52.60
2017-05-31T14:14:29.127Z,52.30
2017-05-31T14:16:56.702Z,52.20
2017-05-31T14:19:25.007Z,50.00
2017-05-31T14:21:53.344Z,54.00
2017-05-31T14:24:20.879Z,54.00
2017-05-31T14:26:49.223Z,49.10
2017-05-31T14:29:17.523Z,50.50
2017-05-31T14:31:45.062Z,50.50
2017-05-31T14:34:12.610Z,51.80
2017-05-31T14:36:40.920Z,50.30
2017-05-31T14:39:09.227Z,51.20
2017-05-31T14:41:37.534Z,51.80
2017-05-31T14:44:05.097Z,51.80
2017-05-31T14:46:33.406Z,51.90
2017-05-31T14:49:01.737Z,49.60
2017-05-31T14:51:30.051Z,51.20
2017-05-31T14:53:58.401Z,51.80
2017-05-31T14:56:26.715Z,51.70
2017-05-31T14:58:55.028Z,51.30
2017-05-31T15:01:22.570Z,51.40
2017-05-31T15:03:50.134Z,51.10
2017-05-31T15:06:17.683Z,50.30
2017-05-31T15:08:45.988Z,50.90
2017-05-31T15:11:13.523Z,50.70
2017-05-31T15:13:41.058Z,50.30
2017-05-31T15:16:09.392Z,52.00
2017-05-31T15:18:37.702Z,52.20
2017-05-31T15:21:06.034Z,51.50
2017-05-31T15:23:34.337Z,51.90
2017-05-31T15:26:01.911Z,51.80
2017-05-31T15:28:30.235Z,51.50
2017-05-31T15:30:58.540Z,52.20
2017-05-31T15:33:26.851Z,52.40
2017-05-31T15:35:54.399Z,52.30
2017-05-31T15:38:22.711Z,51.40
2017-05-31T15:40:50.247Z,51.30
2017-05-31T15:43:17.806Z,52.70
2017-05-31T15:45:45.344Z,51.10
2017-05-31T15:48:13.676Z,51.40
2017-05-31T15:50:41.995Z,51.00
2017-05-31T15:53:10.342Z,51.60
2017-05-31T15:55:37.893Z,51.50
2017-05-31T15:58:06.219Z,49.80
2017-05-31T16:00:34.522Z,52.50
2017-05-31T16:03:02.831Z,50.40
2017-05-31T16:05:31.159Z,51.90
2017-05-31T16:07:59.475Z,50.80
2017-05-31T16:10:27.802Z,51.00
2017-05-31T16:12:56.112Z,51.20
2017-05-31T16:15:23.672Z,51.20
2017-05-31T16:17:51.991Z,50.90
2017-05-31T16:20:20.320Z,51.50
2017-05-31T16:22:48.630Z,51.80
2017-05-31T16:25:16.966Z,52.00
2017-05-31T16:27:45.274Z,51.20
2017-05-31T16:30:12.819Z,51.20
2017-05-31T16:32:41.127Z,51.70
2017-05-31T16:35:08.664Z,51.80
2017-05-31T16:37:36.970Z,52.60
2017-05-31T16:40:04.511Z,52.70
2017-05-31T16:42:32.846Z,51.30
2017-05-31T16:45:00.396Z,51.30
2017-05-31T16:47:28.733Z,49.70
2017-05-31T16:49:57.040Z,49.90
2017-05-31T16:52:24.606Z,49.70
2017-05-31T16:54:52.912Z,49.40
2017-05-31T16:57:27.298Z,49.90
2017-05-31T16:59:55.611Z,50.80
2017-05-31T17:02:23.928Z,51.20
2017-05-31T17:04:52.251Z,49.50
2017-05-31T17:07:20.555Z,50.10
2017-05-31T17:09:48.139Z,50.10
2017-05-31T17:12:28.826Z,50.20
2017-05-31T17:14:57.156Z,51.20
2017-05-31T17:17:25.466Z,50.60
2017-05-31T17:19:53.007Z,50.70
2017-05-31T17:22:21.323Z,50.40
2017-05-31T17:24:48.871Z,50.30
2017-05-31T17:27:17.201Z,49.70
2017-05-31T17:29:45.557Z,50.10
2017-05-31T17:32:13.872Z,49.70
2017-05-31T17:34:42.199Z,51.80
2017-05-31T17:37:11.349Z,53.30
2017-05-31T17:39:39.663Z,54.60
2017-05-31T17:42:07.212Z,54.50
2017-05-31T17:44:34.755Z,54.00
2017-05-31T17:47:02.299Z,54.50
2017-05-31T17:49:30.626Z,54.50
2017-05-31T17:51:58.195Z,54.60
2017-05-31T17:54:25.730Z,56.40
2017-05-31T17:56:53.309Z,55.60
2017-05-31T17:59:21.630Z,57.40
2017-05-31T18:01:50.027Z,57.10
2017-05-31T18:04:18.332Z,55.40
2017-05-31T18:06:45.882Z,55.40
2017-05-31T18:09:14.195Z,55.40
2017-05-31T18:11:42.511Z,57.10
2017-05-31T18:14:10.821Z,57.30
2017-05-31T18:16:39.134Z,58.60
2017-05-31T18:19:07.475Z,56.20
2017-05-31T18:21:35.791Z,56.80
2017-05-31T18:24:04.153Z,57.70
2017-05-31T18:26:32.456Z,57.90
2017-05-31T18:29:00.795Z,58.00
2017-05-31T18:31:29.167Z,57.20
2017-05-31T18:33:57.557Z,58.50
2017-05-31T18:36:25.923Z,58.60
2017-05-31T18:38:54.238Z,59.20
2017-05-31T18:41:22.546Z,59.90
2017-05-31T18:43:50.851Z,58.70
2017-05-31T18:46:19.194Z,59.80
2017-05-31T18:48:47.522Z,58.20
2017-05-31T18:51:15.858Z,59.00
2017-05-31T18:53:44.187Z,59.40
2017-05-31T18:56:12.499Z,57.80
2017-05-31T18:58:40.806Z,60.00
2017-05-31T19:01:09.218Z,60.10
2017-05-31T19:03:37.529Z,59.30
2017-05-31T19:06:05.836Z,60.50
2017-05-31T19:08:34.265Z,59.80
2017-05-31T19:11:02.575Z,59.80
2017-05-31T19:13:30.928Z,59.10
2017-05-31T19:15:59.234Z,58.60
2017-05-31T19:18:27.576Z,58.90
2017-05-31T19:20:55.956Z,59.80
2017-05-31T19:23:24.341Z,59.30
2017-05-31T19:25:53.057Z,59.60
2017-05-31T19:28:21.371Z,61.70
2017-05-31T19:30:49.714Z,62.50
2017-05-31T19:33:18.048Z,63.60
2017-05-31T19:35:46.391Z,62.90
2017-05-31T19:38:14.726Z,64.10
2017-05-31T19:40:43.061Z,62.50
2017-05-31T19:43:11.381Z,63.30
2017-05-31T19:45:39.771Z,65.10
2017-05-31T19:48:08.111Z,64.00
2017-05-31T19:50:36.443Z,62.40
2017-05-31T19:53:04.773Z,65.70
2017-05-31T19:55:33.170Z,63.30
2017-05-31T19:58:01.551Z,65.50
2017-05-31T20:00:29.855Z,65.40
2017-05-31T20:02:58.194Z,65.70
2017-05-31T20:05:26.531Z,65.80
2017-05-31T20:07:54.869Z,65.80
2017-05-31T20:10:23.217Z,65.80
2017-05-31T20:12:51.528Z,65.10
2017-05-31T20:15:19.891Z,66.50
2017-05-31T20:17:48.309Z,66.50
2017-05-31T20:20:16.681Z,67.90
2017-05-31T20:22:45.002Z,66.40
2017-05-31T20:25:13.341Z,65.70
2017-05-31T20:27:41.695Z,66.20
2017-05-31T20:30:10.027Z,65.40
2017-05-31T20:32:38.377Z,67.70
2017-05-31T20:35:05.948Z,67.60
2017-05-31T20:37:34.263Z,67.70
2017-05-31T20:40:02.624Z,68.80
2017-05-31T20:42:31.008Z,68.40
2017-05-31T20:44:59.339Z,68.70
2017-05-31T20:47:27.678Z,67.80
2017-05-31T20:49:56.002Z,68.30
2017-05-31T20:52:24.380Z,69.70
2017-05-31T20:54:52.745Z,68.90
2017-05-31T20:57:21.086Z,71.00
2017-05-31T20:59:49.559Z,68.00
2017-05-31T21:02:17.919Z,69.60
2017-05-31T21:04:46.311Z,71.10
2017-05-31T21:07:14.784Z,70.70
2017-05-31T21:09:43.183Z,69.60
2017-05-31T21:12:11.619Z,69.70
2017-05-31T21:14:39.943Z,69.70
2017-05-31T21:17:08.300Z,71.00
2017-05-31T21:19:36.684Z,72.00
2017-05-31T21:22:05.219Z,72.60
2017-05-31T21:24:33.623Z,70.40
2017-05-31T21:27:01.971Z,71.80
2017-05-31T21:29:30.307Z,73.70
2017-05-31T21:31:58.658Z,72.20
2017-05-31T21:34:26.979Z,71.60
2017-05-31T21:36:55.331Z,72.60
2017-05-31T21:39:23.664Z,72.70
2017-05-31T21:41:52.123Z,73.20
2017-05-31T21:44:20.449Z,73.00
2017-05-31T21:46:48.755Z,71.70
2017-05-31T21:49:23.986Z,72.70
2017-05-31T21:51:52.315Z,73.50
2017-05-31T21:54:20.680Z,72.70
2017-05-31T21:56:49.014Z,74.10
2017-05-31T21:59:17.346Z,73.20
2017-05-31T22:01:45.672Z,73.50
2017-05-31T22:04:14.019Z,74.20
2017-05-31T22:06:42.355Z,73.30
2017-05-31T22:09:10.666Z,74.80
2017-05-31T22:11:39.030Z,71.90
2017-05-31T22:14:07.354Z,73.60
2017-05-31T22:16:35.703Z,73.10
2017-05-31T22:19:04.098Z,72.30
2017-05-31T22:21:32.399Z,73.70
2017-05-31T22:24:00.779Z,75.20
2017-05-31T22:26:29.086Z,74.70
2017-05-31T22:28:57.477Z,74.00
2017-05-31T22:31:25.793Z,75.90
2017-05-31T22:33:54.135Z,75.80
2017-05-31T22:36:22.484Z,76.40
2017-05-31T22:38:50.800Z,75.00
2017-05-31T22:41:19.139Z,74.80
2017-05-31T22:43:47.454Z,74.80
2017-05-31T22:46:15.773Z,76.40
2017-05-31T22:48:44.096Z,76.40
2017-05-31T22:51:12.482Z,75.70
2017-05-31T22:53:40.810Z,76.10
2017-05-31T22:56:09.147Z,76.50
2017-05-31T22:58:37.463Z,77.30
2017-05-31T23:01:05.800Z,78.00
2017-05-31T23:03:34.181Z,75.50
2017-05-31T23:06:02.498Z,75.20
2017-05-31T23:08:30.883Z,76.90
2017-05-31T23:10:59.264Z,76.30
2017-05-31T23:13:27.848Z,75.70
2017-05-31T23:15:56.319Z,77.10
2017-05-31T23:18:24.916Z,78.40
2017-05-31T23:20:53.293Z,77.80
2017-05-31T23:23:21.706Z,78.30
2017-05-31T23:25:50.260Z,78.20
2017-05-31T23:28:18.644Z,76.90
2017-05-31T23:30:47.185Z,78.80
2017-05-31T23:33:15.609Z,79.00
2017-05-31T23:35:44.291Z,77.90
2017-05-31T23:38:12.775Z,79.20
2017-05-31T23:40:41.189Z,79.60
2017-05-31T23:43:09.735Z,78.70
2017-05-31T23:45:38.141Z,79.90
2017-05-31T23:48:06.622Z,78.50
2017-05-31T23:50:35.066Z,79.00
2017-05-31T23:53:03.522Z,78.90
2017-05-31T23:55:31.905Z,78.50
2017-05-31T23:58:00.389Z,80.20
